HomeShort term forecast

Short term forecast

Graphical weather forecast for the next 48 hours for Montreal:
Short term forecast
This weather forecast is automatically refreshed every 3 hours.

Hourly Experimental Forecast for the next 48 hours

Overall summary: Mostly cloudy throughout the day.

 Date & Hour   Temp   Feel   Baro   Hum   Speed & Bearing   Precipitation   Visibility   Cloud cover   Conditions 
 19/04/2018 - 07:00  -0.5°C  -4.3°C  1005.9 hPa  85%  11.8 km/h   --  13.3km  50%  Partly Cloudy 
 19/04/2018 - 08:00  -0.1°C  -3.9°C  1006.6 hPa  84%  12.0 km/h   0.01 mm/h  12.2km  45%  Partly Cloudy 
 19/04/2018 - 09:00  1.0°C  -2.6°C  1006.5 hPa  80%  12.2 km/h   0.01 mm/h  10.0km  54%  Partly Cloudy 
 19/04/2018 - 10:00  2.2°C  -1.0°C  1006.5 hPa  75%  11.3 km/h   --  14.2km  59%  Partly Cloudy 
 19/04/2018 - 11:00  3.1°C  0.4°C  1006.6 hPa  72%  10.1 km/h   --  16.1km  59%  Partly Cloudy 
 19/04/2018 - 12:00  3.6°C  1.1°C  1006.6 hPa  71%  10.0 km/h   0.01 mm/h  16.1km  63%  Mostly Cloudy 
 19/04/2018 - 13:00  4.0°C  1.3°C  1006.6 hPa  70%  10.4 km/h   0.04 mm/h  16.1km  65%  Mostly Cloudy 
 19/04/2018 - 14:00  4.2°C  1.7°C  1006.9 hPa  70%  10.0 km/h   0.08 mm/h  13.1km  64%  Mostly Cloudy 
 19/04/2018 - 15:00  4.3°C  1.5°C  1007.1 hPa  70%  11.8 km/h   0.11 mm/h  16.1km  72%  Mostly Cloudy 
 19/04/2018 - 16:00  4.4°C  1.3°C  1007.5 hPa  70%  13.1 km/h   0.06 mm/h  16.1km  75%  Mostly Cloudy 
 19/04/2018 - 17:00  4.3°C  0.9°C  1008.0 hPa  71%  14.6 km/h   0.07 mm/h  16.1km  78%  Mostly Cloudy 
 19/04/2018 - 18:00  4.0°C  0.6°C  1008.6 hPa  72%  14.5 km/h   0.08 mm/h  16.1km  80%  Mostly Cloudy 
 19/04/2018 - 19:00  3.5°C  0.0°C  1009.2 hPa  73%  14.4 km/h   0.05 mm/h  16.1km  80%  Mostly Cloudy 
 19/04/2018 - 20:00  3.2°C  -0.4°C  1010.2 hPa  73%  15.1 km/h   0.06 mm/h  16.1km  100%  Overcast 
 19/04/2018 - 21:00  2.6°C  -1.2°C  1010.4 hPa  76%  15.5 km/h   0.04 mm/h  16.1km  100%  Overcast 
 19/04/2018 - 22:00  2.1°C  -1.9°C  1011.0 hPa  78%  15.6 km/h   0.05 mm/h  16.1km  100%  Overcast 
 19/04/2018 - 23:00  1.7°C  -2.4°C  1011.6 hPa  80%  15.5 km/h   0.04 mm/h  16.1km  100%  Overcast 
 20/04/2018 - 00:00  1.5°C  -2.7°C  1011.6 hPa  83%  15.6 km/h   0.07 mm/h  16.1km  96%  Overcast 
 20/04/2018 - 01:00  1.5°C  -2.6°C  1011.7 hPa  84%  15.6 km/h   0.08 mm/h  16.1km  91%  Mostly Cloudy 
 20/04/2018 - 02:00  1.8°C  -2.4°C  1012.3 hPa  85%  15.9 km/h   0.11 mm/h  16.1km  100%  Overcast 
 20/04/2018 - 03:00  1.7°C  -2.6°C  1012.5 hPa  83%  16.4 km/h   0.07 mm/h  16.1km  92%  Mostly Cloudy 
 20/04/2018 - 04:00  1.5°C  -2.9°C  1013.3 hPa  82%  17.2 km/h   0.06 mm/h  16.1km  98%  Overcast 
 20/04/2018 - 05:00  1.4°C  -3.1°C  1014.0 hPa  81%  17.7 km/h   0.07 mm/h  16.1km  99%  Overcast 
 20/04/2018 - 06:00  1.3°C  -3.2°C  1014.9 hPa  81%  17.8 km/h   0.05 mm/h  16.1km  91%  Mostly Cloudy 
 20/04/2018 - 07:00  1.6°C  -2.9°C  1015.9 hPa  80%  17.5 km/h   0.04 mm/h  16.1km  79%  Mostly Cloudy 
 20/04/2018 - 08:00  2.1°C  -2.2°C  1016.7 hPa  77%  17.3 km/h   0.03 mm/h  16.1km  70%  Mostly Cloudy 
 20/04/2018 - 09:00  3.1°C  -1.0°C  1017.6 hPa  74%  17.5 km/h   0.03 mm/h  16.1km  69%  Mostly Cloudy 
 20/04/2018 - 10:00  4.2°C  0.4°C  1018.4 hPa  70%  18.0 km/h   0.04 mm/h  16.1km  73%  Mostly Cloudy 
 20/04/2018 - 11:00  5.1°C  1.3°C  1019.0 hPa  68%  18.5 km/h   0.06 mm/h  16.1km  78%  Mostly Cloudy 
 20/04/2018 - 12:00  5.5°C  1.9°C  1019.5 hPa  67%  18.7 km/h   0.07 mm/h  16.1km  82%  Mostly Cloudy 
 20/04/2018 - 13:00  5.7°C  2.1°C  1019.8 hPa  66%  19.0 km/h   0.08 mm/h  16.1km  91%  Mostly Cloudy 
 20/04/2018 - 14:00  6.2°C  2.6°C  1020.1 hPa  64%  19.3 km/h   0.10 mm/h  16.1km  97%  Overcast 
 20/04/2018 - 15:00  6.6°C  3.1°C  1020.4 hPa  63%  19.9 km/h   0.10 mm/h  16.1km  99%  Overcast 
 20/04/2018 - 16:00  6.9°C  3.4°C  1020.7 hPa  61%  20.7 km/h   0.08 mm/h  16.1km  100%  Overcast 
 20/04/2018 - 17:00  6.9°C  3.4°C  1021.2 hPa  61%  20.9 km/h   0.06 mm/h  16.1km  99%  Overcast 
 20/04/2018 - 18:00  6.4°C  2.9°C  1022.0 hPa  61%  20.0 km/h   0.03 mm/h  16.1km  89%  Mostly Cloudy 
 20/04/2018 - 19:00  5.6°C  2.0°C  1023.0 hPa  63%  18.6 km/h   0.01 mm/h  16.1km  75%  Mostly Cloudy 
 20/04/2018 - 20:00  4.8°C  1.1°C  1023.9 hPa  65%  17.3 km/h   --  16.1km  62%  Mostly Cloudy 
 20/04/2018 - 21:00  3.8°C  0.1°C  1024.5 hPa  68%  16.1 km/h   --  16.1km  45%  Partly Cloudy 
 20/04/2018 - 22:00  2.9°C  -0.8°C  1025.1 hPa  70%  15.0 km/h   --  16.1km  26%  Partly Cloudy 
 20/04/2018 - 23:00  2.2°C  -1.5°C  1025.8 hPa  72%  13.9 km/h   --  16.1km  19%  Clear 
 21/04/2018 - 00:00  1.5°C  -2.2°C  1025.8 hPa  75%  13.3 km/h   --  16.1km  15%  Clear 
 21/04/2018 - 01:00  1.1°C  -2.7°C  1026.0 hPa  76%  12.7 km/h   --  16.1km  22%  Clear 
 21/04/2018 - 02:00  0.8°C  -2.9°C  1026.2 hPa  76%  12.3 km/h   --  16.1km  28%  Partly Cloudy 
 21/04/2018 - 03:00  0.4°C  -3.4°C  1026.3 hPa  77%  12.2 km/h   --  16.1km  31%  Partly Cloudy 
 21/04/2018 - 04:00  -0.1°C  -3.9°C  1026.5 hPa  79%  12.2 km/h   --  16.1km  32%  Partly Cloudy 
 21/04/2018 - 05:00  -0.4°C  -4.3°C  1026.7 hPa  79%  12.5 km/h   --  16.1km  30%  Partly Cloudy 
 21/04/2018 - 06:00  -0.2°C  -4.3°C  1027.1 hPa  79%  12.8 km/h   --  16.1km  25%  Partly Cloudy 
Test

 

Past weather and reports

Past weatherFind in this section the past weather conditions, weather archive, graphics, reports and statistics.

Current conditions

Current weather condition for MontrealAll you need to know about the current weather conditions for Montreal. Weather data is updated every 10 minutes.

Weather forecast

Current Montreal weatherSince 2004, celinium.com website has provided accurate weather forecast for Montreal's island.